Time;durP1;ratioP1;P1;durP2;ratioP2;P2;SDS_P1;SDS_P2;PMS_P1;PMS_P2;Temp;Humidity;BMP_temperature;BMP_pressure;BME280_temperature;BME280_humidity;BME280_pressure;Samples;Min_cycle;Max_cycle;Signal;HPM_P1;HPM_P2
2022/05/28 00:02:04;;;;;;;;;;;22.20;43.70;;;;;;5142277;27;20291;-46
2022/05/28 00:04:30;;;;;;;;;;;22.30;43.50;;;;;;5127716;27;20126;-56
2022/05/28 00:06:56;;;;;;;;;;;22.30;43.40;;;;;;5144356;27;19923;-46
2022/05/28 00:09:22;;;;;;;;;;;22.20;43.60;;;;;;5144361;27;20043;-50
2022/05/28 00:11:48;;;;;;;;;;;22.10;44.10;;;;;;5148448;27;19992;-50
2022/05/28 00:14:13;;;;;;;;;;;22.00;44.70;;;;;;5142477;27;19927;-50
2022/05/28 00:16:41;;;;;;;;;;;21.90;45.10;;;;;;5142720;27;21297;-52
2022/05/28 00:19:07;;;;;;;;;;;21.90;45.30;;;;;;5147691;27;19927;-49
2022/05/28 00:21:33;;;;;;;;;;;22.00;45.10;;;;;;5141096;27;20052;-50
2022/05/28 00:23:58;;;;;;;;;;;22.10;44.90;;;;;;5146890;27;19926;-51
2022/05/28 00:26:24;;;;;;;;;;;22.10;44.80;;;;;;5142416;27;19962;-49
2022/05/28 00:28:50;;;;;;;;;;;22.10;44.60;;;;;;5142792;27;19930;-48
2022/05/28 00:31:16;;;;;;;;;;;22.20;44.40;;;;;;5147968;27;19984;-48
2022/05/28 00:33:42;;;;;;;;;;;22.20;44.30;;;;;;5142465;27;19981;-48
2022/05/28 00:36:09;;;;;;;;;;;22.20;44.30;;;;;;5142222;27;20223;-48
2022/05/28 00:38:35;;;;;;;;;;;22.10;44.50;;;;;;5147431;27;19946;-47
2022/05/28 00:41:00;;;;;;;;;;;22.00;45.00;;;;;;5140021;27;20227;-47
2022/05/28 00:43:27;;;;;;;;;;;22.00;45.10;;;;;;5146641;27;19930;-54
2022/05/28 00:45:59;;;;;;;;;;;22.00;45.20;;;;;;5142713;27;20370;-46
2022/05/28 00:48:26;;;;;;;;;;;22.10;45.00;;;;;;5123683;27;19992;-47
2022/05/28 00:50:52;;;;;;;;;;;22.10;44.80;;;;;;5147504;27;20017;-47
2022/05/28 00:53:18;;;;;;;;;;;22.20;44.70;;;;;;5121893;27;20234;-48
2022/05/28 00:55:43;;;;;;;;;;;22.20;44.50;;;;;;5122885;27;19945;-47
2022/05/28 00:58:09;;;;;;;;;;;22.30;44.10;;;;;;5145907;27;19923;-51
2022/05/28 01:00:35;;;;;;;;;;;22.20;44.30;;;;;;5120930;27;19931;-50
2022/05/28 01:03:01;;;;;;;;;;;22.10;44.60;;;;;;5122946;27;19933;-53
2022/05/28 01:05:53;;;;;;;;;;;22.10;44.80;;;;;;5147104;27;20818;-49
2022/05/28 01:08:28;;;;;;;;;;;22.00;45.20;;;;;;5101740;27;19991;-52
2022/05/28 01:10:57;;;;;;;;;;;21.80;45.90;;;;;;5106518;27;20177;-46
2022/05/28 01:13:24;;;;;;;;;;;22.00;45.60;;;;;;5127124;27;19928;-50
2022/05/28 01:15:52;;;;;;;;;;;22.00;45.50;;;;;;5140696;27;20042;-50
2022/05/28 01:18:23;;;;;;;;;;;22.10;45.10;;;;;;5108993;27;19927;-55
2022/05/28 01:20:52;;;;;;;;;;;21.70;44.80;;;;;;5139860;27;19979;-47
2022/05/28 01:23:36;;;;;;;;;;;21.30;44.10;;;;;;5141166;27;19927;-46
2022/05/28 01:26:15;;;;;;;;;;;21.30;44.50;;;;;;5146169;27;19927;-53
2022/05/28 01:28:42;;;;;;;;;;;21.70;45.40;;;;;;5128603;27;20396;-45
2022/05/28 01:31:08;;;;;;;;;;;21.80;45.30;;;;;;5141279;27;20382;-45
2022/05/28 01:33:34;;;;;;;;;;;21.80;45.50;;;;;;5146681;27;19934;-47
2022/05/28 01:36:00;;;;;;;;;;;21.80;45.80;;;;;;5139215;27;20018;-44
2022/05/28 01:38:26;;;;;;;;;;;21.80;45.80;;;;;;5140423;27;19923;-47
2022/05/28 01:40:52;;;;;;;;;;;21.80;45.40;;;;;;5146514;27;19974;-47
2022/05/28 01:43:18;;;;;;;;;;;21.90;45.20;;;;;;5122765;27;19974;-46
2022/05/28 01:45:47;;;;;;;;;;;22.00;44.70;;;;;;5121692;27;19927;-44
2022/05/28 01:48:13;;;;;;;;;;;22.10;44.30;;;;;;5128741;27;19923;-45
2022/05/28 01:50:40;;;;;;;;;;;22.10;44.00;;;;;;5140830;27;20442;-45
2022/05/28 01:53:06;;;;;;;;;;;22.10;43.70;;;;;;5145017;27;19923;-47
2022/05/28 01:55:36;;;;;;;;;;;22.20;43.40;;;;;;5125817;27;19923;-45
2022/05/28 01:58:02;;;;;;;;;;;22.20;43.30;;;;;;5147600;27;20762;-45
2022/05/28 02:00:28;;;;;;;;;;;22.10;43.50;;;;;;5153210;27;19927;-45
2022/05/28 02:02:57;;;;;;;;;;;22.00;44.00;;;;;;5147956;27;20393;-46
2022/05/28 02:05:23;;;;;;;;;;;22.00;43.90;;;;;;5129602;27;19923;-46
2022/05/28 02:07:49;;;;;;;;;;;22.00;43.80;;;;;;5153392;27;19981;-46
2022/05/28 02:10:15;;;;;;;;;;;22.20;43.40;;;;;;5147573;27;19932;-46
2022/05/28 02:12:50;;;;;;;;;;;22.20;43.00;;;;;;5145735;27;20019;-48
2022/05/28 02:15:28;;;;;;;;;;;22.30;42.50;;;;;;5132792;27;19931;-50
2022/05/28 02:17:59;;;;;;;;;;;22.20;42.30;;;;;;5147297;27;19927;-47
2022/05/28 02:20:28;;;;;;;;;;;22.20;42.00;;;;;;5148246;27;19923;-52
2022/05/28 02:22:56;;;;;;;;;;;22.20;42.10;;;;;;5153160;27;19923;-45
2022/05/28 02:25:28;;;;;;;;;;;22.10;42.30;;;;;;5129424;27;19963;-47
2022/05/28 02:27:54;;;;;;;;;;;22.00;42.40;;;;;;5152696;27;19930;-45
2022/05/28 02:30:20;;;;;;;;;;;22.10;42.00;;;;;;5145778;27;19927;-45
2022/05/28 02:32:45;;;;;;;;;;;22.10;41.80;;;;;;5146189;27;19967;-45
2022/05/28 02:35:11;;;;;;;;;;;22.10;41.60;;;;;;5152701;27;19931;-45
2022/05/28 02:37:37;;;;;;;;;;;22.20;41.40;;;;;;5147490;27;19938;-45
2022/05/28 02:40:03;;;;;;;;;;;22.30;40.90;;;;;;5147452;27;19966;-47
2022/05/28 02:42:29;;;;;;;;;;;22.20;40.80;;;;;;5134685;27;20017;-47
2022/05/28 02:44:55;;;;;;;;;;;22.30;40.60;;;;;;5147430;27;19930;-45
2022/05/28 02:47:21;;;;;;;;;;;22.20;40.70;;;;;;5151200;27;20104;-50
2022/05/28 02:49:47;;;;;;;;;;;22.10;40.90;;;;;;5146690;27;19975;-46
2022/05/28 02:52:12;;;;;;;;;;;22.00;41.10;;;;;;5146826;27;20346;-44
2022/05/28 02:54:38;;;;;;;;;;;22.00;41.00;;;;;;5152402;27;19923;-46
2022/05/28 02:57:04;;;;;;;;;;;22.20;40.70;;;;;;5147429;27;20359;-45
2022/05/28 02:59:30;;;;;;;;;;;22.10;40.60;;;;;;5147232;27;19927;-47
2022/05/28 03:01:56;;;;;;;;;;;22.10;40.50;;;;;;5152912;27;19923;-46
2022/05/28 03:04:22;;;;;;;;;;;22.30;40.00;;;;;;5146882;27;19923;-51
2022/05/28 03:06:48;;;;;;;;;;;22.30;39.70;;;;;;5143903;27;20374;-55
2022/05/28 03:09:14;;;;;;;;;;;22.20;39.70;;;;;;5146013;27;19927;-47
2022/05/28 03:11:40;;;;;;;;;;;22.20;39.60;;;;;;5143252;27;19981;-47
2022/05/28 03:14:06;;;;;;;;;;;22.10;39.70;;;;;;5149127;27;20053;-47
2022/05/28 03:16:32;;;;;;;;;;;22.00;39.80;;;;;;5143488;27;19923;-47
2022/05/28 03:18:58;;;;;;;;;;;22.10;39.80;;;;;;5143328;27;19927;-46
2022/05/28 03:21:23;;;;;;;;;;;22.00;39.60;;;;;;5148775;27;19923;-45
2022/05/28 03:23:49;;;;;;;;;;;22.10;39.40;;;;;;5143148;27;20362;-46
2022/05/28 03:26:16;;;;;;;;;;;21.60;39.70;;;;;;5141069;27;19987;-45
2022/05/28 03:28:42;;;;;;;;;;;21.30;39.50;;;;;;5148149;27;19929;-46
2022/05/28 03:31:07;;;;;;;;;;;21.30;39.10;;;;;;5143121;27;20342;-46
2022/05/28 03:33:33;;;;;;;;;;;21.70;39.60;;;;;;5148860;27;20873;-45
2022/05/28 03:35:59;;;;;;;;;;;21.80;39.30;;;;;;5143082;27;19927;-47
2022/05/28 03:38:25;;;;;;;;;;;21.90;39.40;;;;;;5143399;27;19977;-46
2022/05/28 03:40:50;;;;;;;;;;;21.90;39.20;;;;;;5129995;27;19971;-46
2022/05/28 03:43:16;;;;;;;;;;;21.90;39.10;;;;;;5141783;27;20174;-45
2022/05/28 03:45:42;;;;;;;;;;;21.90;39.00;;;;;;5141536;27;19981;-45
2022/05/28 03:48:08;;;;;;;;;;;22.00;38.80;;;;;;5148099;27;19927;-45
2022/05/28 03:50:34;;;;;;;;;;;22.00;38.70;;;;;;5143005;27;19929;-46
2022/05/28 03:53:00;;;;;;;;;;;22.00;38.60;;;;;;5148652;27;19930;-46
2022/05/28 03:55:25;;;;;;;;;;;22.20;38.20;;;;;;5143134;27;19927;-45
2022/05/28 03:57:51;;;;;;;;;;;22.10;38.30;;;;;;5142903;27;19923;-46
2022/05/28 04:00:17;;;;;;;;;;;22.20;38.10;;;;;;5148327;27;19930;-46
2022/05/28 04:02:43;;;;;;;;;;;22.00;38.30;;;;;;5140715;27;19923;-45
2022/05/28 04:05:09;;;;;;;;;;;22.10;38.10;;;;;;5141902;27;20277;-45
2022/05/28 04:07:35;;;;;;;;;;;22.10;38.10;;;;;;5148025;27;19931;-45
2022/05/28 04:10:01;;;;;;;;;;;22.10;38.10;;;;;;5142977;27;19923;-46
2022/05/28 04:12:27;;;;;;;;;;;22.20;37.80;;;;;;5112784;27;19930;-47
2022/05/28 04:14:53;;;;;;;;;;;22.20;37.70;;;;;;5143098;27;19941;-44
2022/05/28 04:17:19;;;;;;;;;;;22.30;37.50;;;;;;5141986;27;20331;-44
2022/05/28 04:19:44;;;;;;;;;;;22.20;37.50;;;;;;5146904;27;19947;-45
2022/05/28 04:22:10;;;;;;;;;;;22.20;37.60;;;;;;5140717;27;19950;-45
2022/05/28 04:24:36;;;;;;;;;;;22.10;37.80;;;;;;5123715;27;20254;-46
2022/05/28 04:27:02;;;;;;;;;;;22.00;37.80;;;;;;5147679;27;19931;-44
2022/05/28 04:29:27;;;;;;;;;;;22.10;37.70;;;;;;5142801;27;19970;-45
2022/05/28 04:31:53;;;;;;;;;;;22.10;37.70;;;;;;5127649;27;19923;-53
2022/05/28 04:34:19;;;;;;;;;;;22.10;37.60;;;;;;5144479;27;20043;-44
2022/05/28 04:36:45;;;;;;;;;;;22.20;37.50;;;;;;5122688;27;20383;-45
2022/05/28 04:39:11;;;;;;;;;;;22.30;37.10;;;;;;5145615;27;19979;-47
2022/05/28 04:41:36;;;;;;;;;;;22.20;37.10;;;;;;5140992;27;20429;-52
2022/05/28 04:44:02;;;;;;;;;;;22.20;37.00;;;;;;5141833;27;19967;-49
2022/05/28 04:46:28;;;;;;;;;;;22.30;36.90;;;;;;5147851;27;19923;-48
2022/05/28 04:48:54;;;;;;;;;;;22.20;37.00;;;;;;5123570;27;19930;-48
2022/05/28 04:51:20;;;;;;;;;;;22.00;37.10;;;;;;5143652;27;19930;-52
2022/05/28 04:53:46;;;;;;;;;;;22.00;37.10;;;;;;5146403;27;19923;-46
2022/05/28 04:56:14;;;;;;;;;;;22.00;37.10;;;;;;5141239;27;19927;-46
2022/05/28 04:58:40;;;;;;;;;;;22.00;36.90;;;;;;5145368;27;20021;-50
2022/05/28 05:01:06;;;;;;;;;;;22.00;36.90;;;;;;5141322;27;19929;-50
2022/05/28 05:03:32;;;;;;;;;;;22.10;36.90;;;;;;5141659;27;20286;-46
2022/05/28 05:05:58;;;;;;;;;;;22.10;36.70;;;;;;5147392;27;19927;-45
2022/05/28 05:08:24;;;;;;;;;;;22.10;36.60;;;;;;5141720;27;19923;-46
2022/05/28 05:10:50;;;;;;;;;;;22.20;36.50;;;;;;5123214;27;19970;-46
2022/05/28 05:13:15;;;;;;;;;;;22.10;36.70;;;;;;5146886;27;19927;-47
2022/05/28 05:15:41;;;;;;;;;;;22.00;36.80;;;;;;5140288;27;20010;-46
2022/05/28 05:18:07;;;;;;;;;;;22.00;36.80;;;;;;5145567;27;19930;-45
2022/05/28 05:20:33;;;;;;;;;;;22.10;36.80;;;;;;5141125;27;19924;-47
2022/05/28 05:22:59;;;;;;;;;;;22.00;36.80;;;;;;5141439;27;19935;-45
2022/05/28 05:25:26;;;;;;;;;;;22.20;36.60;;;;;;5146787;27;19934;-46
2022/05/28 05:27:52;;;;;;;;;;;22.10;36.60;;;;;;5141610;27;19944;-46
2022/05/28 05:30:18;;;;;;;;;;;22.10;36.50;;;;;;5140470;27;20253;-46
2022/05/28 05:32:44;;;;;;;;;;;21.40;37.50;;;;;;5127953;27;19926;-45
2022/05/28 05:35:10;;;;;;;;;;;21.20;37.60;;;;;;5139017;27;19930;-46
2022/05/28 05:37:36;;;;;;;;;;;21.30;37.60;;;;;;5146236;27;19945;-45
2022/05/28 05:40:01;;;;;;;;;;;21.70;37.30;;;;;;5141178;27;19923;-45
2022/05/28 05:42:27;;;;;;;;;;;21.80;37.10;;;;;;5141345;27;20353;-45
2022/05/28 05:44:53;;;;;;;;;;;21.80;37.10;;;;;;5146722;27;20021;-46
2022/05/28 05:47:19;;;;;;;;;;;21.80;37.00;;;;;;5141308;27;20294;-45
2022/05/28 05:49:45;;;;;;;;;;;21.80;37.00;;;;;;5140907;27;19970;-45
2022/05/28 05:52:11;;;;;;;;;;;21.90;36.80;;;;;;5145183;27;19938;-47
2022/05/28 05:54:36;;;;;;;;;;;21.90;36.80;;;;;;5139797;27;19927;-46
2022/05/28 05:57:02;;;;;;;;;;;22.00;36.50;;;;;;5144647;27;19923;-48
2022/05/28 05:59:28;;;;;;;;;;;22.00;36.50;;;;;;5143056;27;19923;-46
2022/05/28 06:01:54;;;;;;;;;;;22.00;36.60;;;;;;5141050;27;19977;-48
2022/05/28 06:04:20;;;;;;;;;;;22.10;36.40;;;;;;5146646;27;20017;-45
2022/05/28 06:06:46;;;;;;;;;;;22.10;36.40;;;;;;5140732;27;19923;-46
2022/05/28 06:09:11;;;;;;;;;;;22.00;36.40;;;;;;5140669;27;19931;-45
2022/05/28 06:11:37;;;;;;;;;;;22.00;36.50;;;;;;5143836;27;19927;-48
2022/05/28 06:14:03;;;;;;;;;;;22.00;36.40;;;;;;5140352;27;20020;-46
2022/05/28 06:16:29;;;;;;;;;;;22.10;36.20;;;;;;5142124;27;20018;-48
2022/05/28 06:18:55;;;;;;;;;;;22.20;36.00;;;;;;5145002;27;19923;-45
2022/05/28 06:21:20;;;;;;;;;;;22.20;35.90;;;;;;5140618;27;19984;-45
2022/05/28 06:23:46;;;;;;;;;;;22.20;35.80;;;;;;5146251;27;19931;-45
2022/05/28 06:26:12;;;;;;;;;;;22.20;35.70;;;;;;5140490;27;19923;-45
2022/05/28 06:28:38;;;;;;;;;;;22.30;35.60;;;;;;5140305;27;20010;-47
2022/05/28 06:31:05;;;;;;;;;;;22.20;35.50;;;;;;5144985;27;19931;-48
2022/05/28 06:33:31;;;;;;;;;;;22.10;35.30;;;;;;5140703;27;20009;-51
2022/05/28 06:35:57;;;;;;;;;;;22.10;35.10;;;;;;5140575;27;20398;-49
2022/05/28 06:38:23;;;;;;;;;;;21.90;35.20;;;;;;5145771;27;20013;-50
2022/05/28 06:40:49;;;;;;;;;;;22.00;35.00;;;;;;5142155;27;19923;-49
2022/05/28 06:43:15;;;;;;;;;;;22.00;34.80;;;;;;5149484;27;19934;-49
2022/05/28 06:45:41;;;;;;;;;;;21.90;34.80;;;;;;5144214;27;20018;-49
2022/05/28 06:48:07;;;;;;;;;;;21.90;34.60;;;;;;5141964;27;19930;-54
2022/05/28 06:53:17;;;;;;;;;;;22.00;34.40;;;;;;5143769;27;19945;-46
2022/05/28 06:55:43;;;;;;;;;;;22.10;34.20;;;;;;5144203;27;20010;-46
2022/05/28 06:58:08;;;;;;;;;;;22.10;34.20;;;;;;5149462;27;19930;-46
2022/05/28 07:00:34;;;;;;;;;;;22.00;34.30;;;;;;5143939;27;19933;-45
2022/05/28 07:03:00;;;;;;;;;;;22.00;34.20;;;;;;5143696;27;19927;-50
2022/05/28 07:05:28;;;;;;;;;;;22.00;34.20;;;;;;5148123;27;19927;-47
2022/05/28 07:07:54;;;;;;;;;;;22.00;34.10;;;;;;5142487;27;20283;-48
2022/05/28 07:10:20;;;;;;;;;;;22.00;34.10;;;;;;5129954;27;20150;-47
2022/05/28 07:12:45;;;;;;;;;;;22.20;33.90;;;;;;5143638;27;19927;-46
2022/05/28 07:15:13;;;;;;;;;;;22.10;33.80;;;;;;5125426;27;20289;-46
2022/05/28 07:17:39;;;;;;;;;;;22.10;33.80;;;;;;5149255;27;19929;-46
2022/05/28 07:20:05;;;;;;;;;;;22.10;33.70;;;;;;5143420;27;20034;-45
2022/05/28 07:22:31;;;;;;;;;;;22.10;33.80;;;;;;5143561;27;20357;-46
2022/05/28 07:24:57;;;;;;;;;;;22.00;33.80;;;;;;5146810;27;20378;-45
2022/05/28 07:27:23;;;;;;;;;;;22.00;33.80;;;;;;5142664;27;19979;-45
2022/05/28 07:29:48;;;;;;;;;;;22.10;33.70;;;;;;5148574;27;19981;-47
2022/05/28 07:32:14;;;;;;;;;;;22.10;33.70;;;;;;5143334;27;20009;-44
2022/05/28 07:34:40;;;;;;;;;;;22.20;33.60;;;;;;5143116;27;19959;-45
2022/05/28 07:37:06;;;;;;;;;;;21.80;34.00;;;;;;5129955;27;20382;-46
2022/05/28 07:39:32;;;;;;;;;;;21.60;34.30;;;;;;5142834;27;19930;-46
2022/05/28 07:41:57;;;;;;;;;;;21.40;34.10;;;;;;5142230;27;20140;-46
2022/05/28 07:44:23;;;;;;;;;;;21.60;34.50;;;;;;5111176;27;19946;-46
2022/05/28 07:46:50;;;;;;;;;;;22.00;33.80;;;;;;5142533;27;19983;-46
2022/05/28 07:49:16;;;;;;;;;;;22.00;33.80;;;;;;5147484;27;19929;-52
2022/05/28 07:51:42;;;;;;;;;;;21.90;33.90;;;;;;5144130;27;19927;-46
2022/05/28 07:54:09;;;;;;;;;;;21.90;33.90;;;;;;5142957;27;19931;-45
2022/05/28 07:56:35;;;;;;;;;;;22.00;33.70;;;;;;5148717;27;19927;-45
2022/05/28 07:59:00;;;;;;;;;;;22.00;33.70;;;;;;5142936;27;19946;-45
2022/05/28 08:01:27;;;;;;;;;;;22.00;33.60;;;;;;5140704;27;19945;-45
2022/05/28 08:03:53;;;;;;;;;;;22.20;33.30;;;;;;5147346;27;19923;-49
2022/05/28 08:06:19;;;;;;;;;;;22.00;33.30;;;;;;5142390;27;19923;-47
2022/05/28 08:08:45;;;;;;;;;;;22.20;33.00;;;;;;5144107;27;20390;-51
2022/05/28 08:11:10;;;;;;;;;;;22.20;32.90;;;;;;5147236;27;20005;-45
2022/05/28 08:13:36;;;;;;;;;;;22.20;33.00;;;;;;5142798;27;19934;-46
2022/05/28 08:16:02;;;;;;;;;;;22.10;32.90;;;;;;5147813;27;20051;-44
2022/05/28 08:18:28;;;;;;;;;;;22.00;32.80;;;;;;5141178;27;19964;-47
2022/05/28 08:23:40;;;;;;;;;;;22.00;32.80;;;;;;5147325;27;19937;-43
2022/05/28 08:26:06;;;;;;;;;;;22.20;32.60;;;;;;5142485;27;19923;-44
2022/05/28 08:28:32;;;;;;;;;;;22.20;32.60;;;;;;5142775;27;19963;-48
2022/05/28 08:30:57;;;;;;;;;;;22.20;32.60;;;;;;5148013;27;20290;-44
2022/05/28 08:33:23;;;;;;;;;;;22.20;32.60;;;;;;5123131;27;19934;-46
2022/05/28 08:35:50;;;;;;;;;;;22.20;32.50;;;;;;5144211;27;20282;-50
2022/05/28 08:38:16;;;;;;;;;;;22.20;32.60;;;;;;5144240;27;19931;-45
2022/05/28 08:40:43;;;;;;;;;;;22.20;32.70;;;;;;5141015;27;20052;-44
2022/05/28 08:43:09;;;;;;;;;;;22.10;32.80;;;;;;5147130;27;20378;-45
2022/05/28 08:45:35;;;;;;;;;;;22.10;32.80;;;;;;5123899;27;19940;-46
2022/05/28 08:48:01;;;;;;;;;;;22.10;32.80;;;;;;5142066;27;20474;-45
2022/05/28 08:50:27;;;;;;;;;;;22.20;32.80;;;;;;5147800;27;19935;-46
2022/05/28 08:53:02;;;;;;;;;;;22.20;32.80;;;;;;5123363;27;19934;-46
2022/05/28 08:55:28;;;;;;;;;;;22.30;32.70;;;;;;5122201;27;19923;-48
2022/05/28 08:58:06;;;;;;;;;;;22.30;32.60;;;;;;5145666;27;19975;-43
2022/05/28 09:00:52;;;;;;;;;;;22.30;32.60;;;;;;5123254;27;19926;-48
2022/05/28 09:03:47;;;;;;;;;;;22.20;32.70;;;;;;5142294;27;20068;-46
2022/05/28 09:06:20;;;;;;;;;;;22.20;32.80;;;;;;5052494;27;20035;-47
2022/05/28 09:08:49;;;;;;;;;;;22.00;32.90;;;;;;5124018;27;20371;-47
2022/05/28 09:11:17;;;;;;;;;;;22.00;32.80;;;;;;5142246;27;19945;-47
2022/05/28 09:13:44;;;;;;;;;;;22.10;32.70;;;;;;5146334;27;20006;-47
2022/05/28 09:16:21;;;;;;;;;;;22.10;32.80;;;;;;5140368;27;19950;-45
2022/05/28 09:18:47;;;;;;;;;;;22.10;32.70;;;;;;5141139;27;20208;-45
2022/05/28 09:21:14;;;;;;;;;;;22.10;32.70;;;;;;5128438;27;19993;-45
2022/05/28 09:23:41;;;;;;;;;;;22.10;32.70;;;;;;5121703;27;19959;-45
2022/05/28 09:26:07;;;;;;;;;;;22.20;32.60;;;;;;5144403;27;19927;-53
2022/05/28 09:28:36;;;;;;;;;;;22.20;32.60;;;;;;5144630;27;19923;-46
2022/05/28 09:31:05;;;;;;;;;;;22.10;32.60;;;;;;5122533;27;19923;-47
2022/05/28 09:33:49;;;;;;;;;;;22.00;32.80;;;;;;5144616;27;20026;-48
2022/05/28 09:36:18;;;;;;;;;;;22.10;32.80;;;;;;5142923;27;19927;-45
2022/05/28 09:38:50;;;;;;;;;;;22.20;32.70;;;;;;5140934;27;19927;-46
2022/05/28 09:41:16;;;;;;;;;;;22.20;32.70;;;;;;5146938;27;20352;-46
2022/05/28 09:43:47;;;;;;;;;;;21.70;33.30;;;;;;5141395;27;19927;-45
2022/05/28 09:46:17;;;;;;;;;;;21.80;32.80;;;;;;5122960;27;19929;-47
2022/05/28 09:48:43;;;;;;;;;;;21.60;33.10;;;;;;5146411;27;19923;-45
2022/05/28 09:51:25;;;;;;;;;;;21.80;33.10;;;;;;5139413;27;19972;-45
2022/05/28 09:57:14;;;;;;;;;;;22.00;32.90;;;;;;5146221;27;20374;-45
2022/05/28 09:59:43;;;;;;;;;;;22.00;32.90;;;;;;5120922;27;19927;-46
2022/05/28 10:02:13;;;;;;;;;;;22.00;32.80;;;;;;5141198;27;19930;-44
2022/05/28 10:04:58;;;;;;;;;;;22.00;32.80;;;;;;5128493;27;19928;-48
2022/05/28 10:07:33;;;;;;;;;;;22.20;32.60;;;;;;5146427;27;20022;-50
2022/05/28 10:09:59;;;;;;;;;;;22.10;32.70;;;;;;5138906;27;19923;-47
2022/05/28 10:12:26;;;;;;;;;;;22.10;32.60;;;;;;5127140;27;19967;-47
2022/05/28 10:15:18;;;;;;;;;;;22.20;32.40;;;;;;5140805;27;20386;-45
2022/05/28 10:17:51;;;;;;;;;;;22.20;32.30;;;;;;5138752;27;19992;-46
2022/05/28 10:20:17;;;;;;;;;;;22.20;32.30;;;;;;5147750;27;19975;-52
2022/05/28 10:22:44;;;;;;;;;;;22.10;32.40;;;;;;5127141;27;20331;-48
2022/05/28 10:25:14;;;;;;;;;;;22.10;32.40;;;;;;5125666;27;19927;-48
2022/05/28 10:27:46;;;;;;;;;;;22.20;32.30;;;;;;5129821;27;20309;-47
2022/05/28 10:30:25;;;;;;;;;;;22.20;32.20;;;;;;5142764;27;20014;-47
2022/05/28 10:32:51;;;;;;;;;;;22.20;32.30;;;;;;5143899;27;19931;-49
2022/05/28 10:35:25;;;;;;;;;;;22.20;32.20;;;;;;5149867;27;20387;-44
2022/05/28 10:37:50;;;;;;;;;;;22.00;32.50;;;;;;5144195;27;19990;-45
2022/05/28 10:40:18;;;;;;;;;;;22.20;32.20;;;;;;5144473;27;19923;-47
2022/05/28 10:42:45;;;;;;;;;;;22.20;32.20;;;;;;5131284;27;19933;-47
2022/05/28 10:45:10;;;;;;;;;;;22.20;32.10;;;;;;5143675;27;20354;-49
2022/05/28 10:47:47;;;;;;;;;;;22.20;32.20;;;;;;5142213;27;19970;-47
2022/05/28 10:50:31;;;;;;;;;;;22.10;32.40;;;;;;5149120;27;20013;-50
2022/05/28 10:53:00;;;;;;;;;;;22.00;32.50;;;;;;5143402;27;21308;-48
2022/05/28 10:55:29;;;;;;;;;;;22.10;32.50;;;;;;5143910;27;20238;-48
2022/05/28 10:58:11;;;;;;;;;;;22.10;32.40;;;;;;5131171;27;19923;-46
2022/05/28 11:00:52;;;;;;;;;;;22.20;32.30;;;;;;5124475;27;19975;-45
2022/05/28 11:03:36;;;;;;;;;;;22.20;32.20;;;;;;5143485;27;20225;-49
2022/05/28 11:06:20;;;;;;;;;;;22.30;32.00;;;;;;5148559;27;20566;-50
2022/05/28 11:08:52;;;;;;;;;;;22.20;31.90;;;;;;5146786;27;19923;-48
2022/05/28 11:11:24;;;;;;;;;;;22.10;31.70;;;;;;5126786;27;20325;-55
2022/05/28 11:13:59;;;;;;;;;;;22.20;31.60;;;;;;5149343;27;19923;-53
2022/05/28 11:16:47;;;;;;;;;;;22.00;31.70;;;;;;5124800;27;20435;-50
2022/05/28 11:19:31;;;;;;;;;;;22.10;31.40;;;;;;5143813;27;19923;-50
2022/05/28 11:22:06;;;;;;;;;;;22.10;31.40;;;;;;5148631;27;19927;-52
2022/05/28 11:24:45;;;;;;;;;;;22.20;31.30;;;;;;5143226;27;19923;-48
2022/05/28 11:27:29;;;;;;;;;;;22.10;31.30;;;;;;5143661;27;20007;-49
2022/05/28 11:30:08;;;;;;;;;;;22.20;31.10;;;;;;5148393;27;19930;-57
2022/05/28 11:32:40;;;;;;;;;;;22.20;30.90;;;;;;5131016;27;19922;-49
2022/05/28 11:35:13;;;;;;;;;;;22.20;30.80;;;;;;5144951;27;20283;-48
2022/05/28 11:37:51;;;;;;;;;;;22.20;30.70;;;;;;5129946;27;20281;-55
2022/05/28 11:40:19;;;;;;;;;;;22.20;30.60;;;;;;5149050;27;19933;-50
2022/05/28 11:42:48;;;;;;;;;;;22.10;30.60;;;;;;5143264;27;19933;-53
2022/05/28 11:45:33;;;;;;;;;;;22.00;30.60;;;;;;5148903;27;19931;-50
2022/05/28 11:48:07;;;;;;;;;;;22.20;30.50;;;;;;5148566;27;20371;-51
2022/05/28 11:53:27;;;;;;;;;;;21.40;31.40;;;;;;5143483;27;19923;-52
2022/05/28 11:55:53;;;;;;;;;;;21.40;31.50;;;;;;5148610;27;19970;-52
2022/05/28 11:58:20;;;;;;;;;;;21.80;30.80;;;;;;5142697;27;19927;-49
2022/05/28 12:00:54;;;;;;;;;;;21.80;30.50;;;;;;5127575;27;19949;-52
2022/05/28 12:03:26;;;;;;;;;;;21.90;30.50;;;;;;5125973;27;20009;-48
2022/05/28 12:05:53;;;;;;;;;;;21.90;30.30;;;;;;5142488;27;20422;-55
2022/05/28 12:08:20;;;;;;;;;;;21.90;30.20;;;;;;5148412;27;20404;-51
2022/05/28 12:10:48;;;;;;;;;;;22.10;30.00;;;;;;5142677;27;19931;-54
2022/05/28 12:13:32;;;;;;;;;;;22.10;30.10;;;;;;5107336;27;19923;-52
2022/05/28 12:16:02;;;;;;;;;;;22.10;30.20;;;;;;5129554;27;19978;-52
2022/05/28 12:18:28;;;;;;;;;;;22.20;30.00;;;;;;5140524;27;19933;-48
2022/05/28 12:20:58;;;;;;;;;;;22.10;30.10;;;;;;5122784;27;19923;-51
2022/05/28 12:23:27;;;;;;;;;;;22.10;30.10;;;;;;5127716;27;19948;-49
2022/05/28 12:25:53;;;;;;;;;;;22.10;30.20;;;;;;5142432;27;20387;-52
2022/05/28 12:28:26;;;;;;;;;;;22.10;30.20;;;;;;5142343;27;19927;-48
2022/05/28 12:30:53;;;;;;;;;;;22.00;30.30;;;;;;5129490;27;20408;-49
2022/05/28 12:33:29;;;;;;;;;;;22.10;30.30;;;;;;5123496;27;20346;-49
2022/05/28 12:36:16;;;;;;;;;;;22.10;30.30;;;;;;5141215;27;19927;-51
2022/05/28 12:38:43;;;;;;;;;;;22.10;30.40;;;;;;5126182;27;20392;-49
2022/05/28 12:41:15;;;;;;;;;;;22.20;30.40;;;;;;5141845;27;19923;-52
2022/05/28 12:43:43;;;;;;;;;;;22.20;30.40;;;;;;5122025;27;20015;-50
2022/05/28 12:46:12;;;;;;;;;;;22.10;30.60;;;;;;5129303;27;19929;-49
2022/05/28 12:48:39;;;;;;;;;;;22.20;30.60;;;;;;5142459;27;20515;-49
2022/05/28 12:51:11;;;;;;;;;;;22.20;30.60;;;;;;5128480;27;20251;-49
2022/05/28 12:53:47;;;;;;;;;;;22.20;30.70;;;;;;5142471;27;19939;-47
2022/05/28 12:56:23;;;;;;;;;;;22.10;30.80;;;;;;5121845;27;19980;-48
2022/05/28 12:58:49;;;;;;;;;;;22.10;30.90;;;;;;5147019;27;20018;-46
2022/05/28 13:01:16;;;;;;;;;;;22.10;30.80;;;;;;5141711;27;20005;-48
2022/05/28 13:03:42;;;;;;;;;;;22.10;30.90;;;;;;5142078;27;19968;-45
2022/05/28 13:06:30;;;;;;;;;;;22.20;30.80;;;;;;5147269;27;20361;-49
2022/05/28 13:09:02;;;;;;;;;;;22.20;30.80;;;;;;5141848;27;19945;-46
2022/05/28 13:11:30;;;;;;;;;;;22.30;30.70;;;;;;5141729;27;19926;-50
2022/05/28 13:13:58;;;;;;;;;;;22.30;30.70;;;;;;5127995;27;20327;-48
2022/05/28 13:16:28;;;;;;;;;;;22.20;30.80;;;;;;5143232;27;20010;-46
2022/05/28 13:19:12;;;;;;;;;;;22.10;30.90;;;;;;5125896;27;20004;-46
2022/05/28 13:21:44;;;;;;;;;;;22.00;31.10;;;;;;5147967;27;19963;-48
2022/05/28 13:24:19;;;;;;;;;;;22.10;31.00;;;;;;5143657;27;19923;-51
2022/05/28 13:26:57;;;;;;;;;;;22.20;30.70;;;;;;5123330;27;19966;-48
2022/05/28 13:29:29;;;;;;;;;;;22.10;30.80;;;;;;5128384;27;19937;-48
2022/05/28 13:31:55;;;;;;;;;;;22.10;30.70;;;;;;5139326;27;19967;-48
2022/05/28 13:34:22;;;;;;;;;;;22.10;30.70;;;;;;5140151;27;20085;-47
2022/05/28 13:36:48;;;;;;;;;;;22.20;30.60;;;;;;5128050;27;19931;-48
2022/05/28 13:39:14;;;;;;;;;;;22.30;30.40;;;;;;5137437;27;20013;-47
2022/05/28 13:41:40;;;;;;;;;;;22.20;30.40;;;;;;5142742;27;20298;-56
2022/05/28 13:44:10;;;;;;;;;;;22.10;30.40;;;;;;5147024;27;20018;-46
2022/05/28 13:46:36;;;;;;;;;;;22.10;30.40;;;;;;5142271;27;19982;-47
2022/05/28 13:49:03;;;;;;;;;;;22.10;30.30;;;;;;5146292;27;19927;-47
2022/05/28 13:51:29;;;;;;;;;;;22.10;30.10;;;;;;5121081;27;19923;-47
2022/05/28 13:53:55;;;;;;;;;;;22.20;30.00;;;;;;5142337;27;19978;-47
2022/05/28 13:56:22;;;;;;;;;;;21.50;31.00;;;;;;5127463;27;20018;-49
2022/05/28 13:58:48;;;;;;;;;;;21.30;31.10;;;;;;5142405;27;19945;-47
2022/05/28 14:01:52;;;;;;;;;;;21.30;31.10;;;;;;5142049;27;19930;-46
2022/05/28 14:04:21;;;;;;;;;;;21.80;30.30;;;;;;5042323;28;20187;-46
2022/05/28 14:06:51;;;;;;;;;;;22.00;30.00;;;;;;5020874;28;19925;-48
2022/05/28 14:09:17;;;;;;;;;;;21.90;30.10;;;;;;5087164;27;19930;-52
2022/05/28 14:11:42;;;;;;;;;;;22.00;29.90;;;;;;5109864;27;20370;-44
2022/05/28 14:14:16;;;;;;;;;;;22.00;29.80;;;;;;5140785;27;19931;-45
2022/05/28 14:16:44;;;;;;;;;;;22.00;29.90;;;;;;5141076;27;20123;-46
2022/05/28 14:19:14;;;;;;;;;;;22.20;29.60;;;;;;5146369;27;20375;-45
2022/05/28 14:21:42;;;;;;;;;;;22.10;29.60;;;;;;5122589;27;19930;-46
2022/05/28 14:24:34;;;;;;;;;;;22.20;29.60;;;;;;5126255;27;19923;-53
2022/05/28 14:27:01;;;;;;;;;;;22.20;29.50;;;;;;5137046;27;19941;-48
2022/05/28 14:29:29;;;;;;;;;;;22.20;29.50;;;;;;5120984;27;19930;-48
2022/05/28 14:31:55;;;;;;;;;;;22.20;29.50;;;;;;5143253;27;20385;-54
2022/05/28 14:34:21;;;;;;;;;;;22.00;29.60;;;;;;5125714;27;20238;-47
2022/05/28 14:36:48;;;;;;;;;;;22.10;29.60;;;;;;5140500;27;19923;-45